createdAt,value
2022-09-27T00:00:46.589Z,99474.88
2022-09-27T00:03:13.839Z,99477.66
2022-09-27T00:05:40.953Z,99477.56
2022-09-27T00:08:08.160Z,99486.59
2022-09-27T00:10:35.099Z,99489.56
2022-09-27T00:13:02.138Z,99492.94
2022-09-27T00:15:28.932Z,99493.38
2022-09-27T00:17:55.719Z,99482.13
2022-09-27T00:20:22.587Z,99485.56
2022-09-27T00:22:50.096Z,99492.06
2022-09-27T00:25:18.592Z,99486.13
2022-09-27T00:27:45.400Z,99484.94
2022-09-27T00:30:13.058Z,99486.88
2022-09-27T00:32:40.024Z,99487.81
2022-09-27T00:35:07.198Z,99493.22
2022-09-27T00:37:34.137Z,99493.94
2022-09-27T00:40:01.157Z,99489.19
2022-09-27T00:42:27.922Z,99487.59
2022-09-27T00:45:14.818Z,99493.16
2022-09-27T00:48:05.138Z,99484.84
2022-09-27T00:50:47.533Z,99481.75
2022-09-27T00:53:22.939Z,99473.75
2022-09-27T00:55:56.248Z,99474.59
2022-09-27T00:58:39.277Z,99472.75
2022-09-27T01:01:10.750Z,99460.91
2022-09-27T01:03:48.824Z,99467.63
2022-09-27T01:06:19.008Z,99461.19
2022-09-27T01:08:46.410Z,99464.28
2022-09-27T01:11:28.504Z,99457.25
2022-09-27T01:14:13.665Z,99454.56
2022-09-27T01:17:15.101Z,99458.41
2022-09-27T01:20:31.535Z,99453.09
2022-09-27T01:23:44.893Z,99447.03
2022-09-27T01:26:46.235Z,99442.69
2022-09-27T01:29:47.683Z,99456.25
2022-09-27T01:32:38.092Z,99457.75
2022-09-27T01:35:38.967Z,99447.03
2022-09-27T01:38:16.696Z,99448.06
2022-09-27T01:41:04.561Z,99442.47
2022-09-27T01:43:41.902Z,99445.44
2022-09-27T01:46:17.244Z,99446.22
2022-09-27T01:48:48.723Z,99436.59
2022-09-27T01:51:36.042Z,99439.03
2022-09-27T01:54:06.361Z,99444.81
2022-09-27T01:56:41.811Z,99442.28
2022-09-27T01:59:20.903Z,99449.91
2022-09-27T02:01:52.791Z,99446.50
2022-09-27T02:04:25.736Z,99438.66
2022-09-27T02:06:59.679Z,99435.78
2022-09-27T02:09:56.949Z,99430.84
2022-09-27T02:12:31.985Z,99431.31
2022-09-27T02:15:07.231Z,99421.75
2022-09-27T02:17:57.069Z,99429.72
2022-09-27T02:20:46.515Z,99416.97
2022-09-27T02:23:19.165Z,99412.75
2022-09-27T02:25:57.317Z,99421.78
2022-09-27T02:28:46.548Z,99406.59
2022-09-27T02:31:14.056Z,99407.06
2022-09-27T02:33:48.692Z,99408.66
2022-09-27T02:36:15.740Z,99401.03
2022-09-27T02:38:44.325Z,99396.56
2022-09-27T02:41:21.050Z,99371.78
2022-09-27T02:43:53.137Z,99378.22
2022-09-27T02:46:50.831Z,99381.28
2022-09-27T02:49:42.204Z,99376.84
2022-09-27T02:53:09.052Z,99372.91
2022-09-27T02:55:57.473Z,99381.41
2022-09-27T02:59:01.772Z,99383.06
2022-09-27T03:02:13.164Z,99362.03
2022-09-27T03:04:52.608Z,99362.31
2022-09-27T03:07:19.942Z,99360.91
2022-09-27T03:09:52.725Z,99354.28
2022-09-27T03:12:26.149Z,99355.06
2022-09-27T03:14:57.781Z,99347.97
2022-09-27T03:17:25.182Z,99352.22
2022-09-27T03:19:52.659Z,99358.13
2022-09-27T03:22:19.471Z,99351.72
2022-09-27T03:24:46.279Z,99356.25
2022-09-27T03:27:13.166Z,99351.00
2022-09-27T03:29:39.962Z,99355.69
2022-09-27T03:32:06.781Z,99357.63
2022-09-27T03:34:33.860Z,99361.75
2022-09-27T03:37:00.671Z,99353.56
2022-09-27T03:39:27.468Z,99360.63
2022-09-27T03:41:54.331Z,99352.34
2022-09-27T03:44:21.137Z,99336.16
2022-09-27T03:46:47.905Z,99348.88
2022-09-27T03:49:14.671Z,99342.91
2022-09-27T03:51:42.063Z,99335.03
2022-09-27T03:54:09.669Z,99337.16
2022-09-27T03:56:36.510Z,99337.34
2022-09-27T03:59:04.006Z,99336.69
2022-09-27T04:01:31.093Z,99331.41
2022-09-27T04:03:57.895Z,99315.56
2022-09-27T04:06:24.861Z,99311.91
2022-09-27T04:08:51.666Z,99319.72
2022-09-27T04:11:18.525Z,99306.22
2022-09-27T04:13:47.573Z,99308.56
2022-09-27T04:16:14.559Z,99315.00
2022-09-27T04:18:41.528Z,99310.16
2022-09-27T04:21:08.669Z,99308.56
2022-09-27T04:23:36.707Z,99309.34
2022-09-27T04:26:04.069Z,99292.84
2022-09-27T04:28:32.127Z,99287.13
2022-09-27T04:30:58.932Z,99291.72
2022-09-27T04:33:25.766Z,99284.91
2022-09-27T04:36:11.038Z,99286.38
2022-09-27T04:38:38.943Z,99292.34
2022-09-27T04:41:07.328Z,99291.06
2022-09-27T04:43:35.106Z,99296.03
2022-09-27T04:46:02.267Z,99284.63
2022-09-27T04:48:29.201Z,99287.59
2022-09-27T04:50:58.703Z,99280.13
2022-09-27T04:53:25.737Z,99278.31
2022-09-27T04:55:54.930Z,99275.13
2022-09-27T04:58:23.672Z,99270.09
2022-09-27T05:00:55.955Z,99277.75
2022-09-27T05:03:23.618Z,99270.09
2022-09-27T05:05:50.469Z,99271.78
2022-09-27T05:08:17.505Z,99275.25
2022-09-27T05:10:44.419Z,99270.75
2022-09-27T05:13:11.165Z,99272.63
2022-09-27T05:15:37.944Z,99268.34
2022-09-27T05:18:04.808Z,99279.44
2022-09-27T05:20:31.597Z,99268.50
2022-09-27T05:22:58.769Z,99261.41
2022-09-27T05:25:25.656Z,99266.44
2022-09-27T05:27:52.808Z,99272.03
2022-09-27T05:30:19.783Z,99261.88
2022-09-27T05:32:50.464Z,99260.84
2022-09-27T05:35:21.214Z,99246.53
2022-09-27T05:37:57.209Z,99237.88
2022-09-27T05:40:42.048Z,99245.66
2022-09-27T05:43:09.901Z,99251.22
2022-09-27T05:45:36.923Z,99244.84
2022-09-27T05:48:04.343Z,99245.66
2022-09-27T05:50:31.257Z,99245.22
2022-09-27T05:52:58.617Z,99241.31
2022-09-27T05:55:25.622Z,99239.06
2022-09-27T05:58:02.687Z,99236.09
2022-09-27T06:00:30.022Z,99231.06
2022-09-27T06:03:00.526Z,99225.09
2022-09-27T06:05:30.822Z,99213.25
2022-09-27T06:08:04.007Z,99216.59
2022-09-27T06:10:31.970Z,99209.53
2022-09-27T06:13:13.690Z,99218.66
2022-09-27T06:15:43.431Z,99219.28
2022-09-27T06:18:18.974Z,99223.69
2022-09-27T06:20:47.028Z,99228.88
2022-09-27T06:23:19.200Z,99230.34
2022-09-27T06:25:49.625Z,99231.19
2022-09-27T06:28:17.964Z,99220.38
2022-09-27T06:30:50.899Z,99222.88
2022-09-27T06:33:20.414Z,99219.97
2022-09-27T06:35:49.421Z,99222.84
2022-09-27T06:38:21.314Z,99212.88
2022-09-27T06:40:48.619Z,99212.88
2022-09-27T06:43:20.574Z,99213.50
2022-09-27T06:45:48.509Z,99209.78
2022-09-27T06:48:17.788Z,99209.38
2022-09-27T06:50:46.691Z,99203.97
2022-09-27T06:53:15.957Z,99206.69
2022-09-27T06:55:43.087Z,99205.88
2022-09-27T06:58:30.354Z,99208.03
2022-09-27T07:00:59.142Z,99207.19
2022-09-27T07:03:35.368Z,99209.25
2022-09-27T07:06:06.847Z,99210.13
2022-09-27T07:08:36.066Z,99208.31
2022-09-27T07:11:07.613Z,99205.34
2022-09-27T07:13:37.361Z,99203.06
2022-09-27T07:16:04.572Z,99199.56
2022-09-27T07:18:31.562Z,99200.84
2022-09-27T07:21:01.784Z,99195.22
2022-09-27T07:23:29.261Z,99195.44
2022-09-27T07:25:56.135Z,99194.88
2022-09-27T07:28:23.200Z,99193.00
2022-09-27T07:30:55.856Z,99188.25
2022-09-27T07:33:23.695Z,99189.97
2022-09-27T07:35:50.435Z,99199.16
2022-09-27T07:38:17.577Z,99188.97
2022-09-27T07:40:44.657Z,99181.72
2022-09-27T07:43:12.462Z,99169.91
2022-09-27T07:45:39.870Z,99168.03
2022-09-27T07:48:09.549Z,99169.09
2022-09-27T07:50:38.494Z,99193.44
2022-09-27T07:53:05.713Z,99191.81
2022-09-27T07:55:32.719Z,99189.34
2022-09-27T07:58:11.839Z,99185.19
2022-09-27T08:00:41.010Z,99183.97
2022-09-27T08:03:12.209Z,99183.53
2022-09-27T08:05:39.052Z,99178.16
2022-09-27T08:08:05.880Z,99174.88
2022-09-27T08:10:34.047Z,99175.50
2022-09-27T08:13:05.418Z,99175.31
2022-09-27T08:15:36.174Z,99178.63
2022-09-27T08:18:03.017Z,99164.06
2022-09-27T08:20:29.809Z,99164.06
2022-09-27T08:22:56.967Z,99172.81
2022-09-27T08:25:24.661Z,99168.25
2022-09-27T08:27:59.873Z,99174.06
2022-09-27T08:30:32.527Z,99167.44
2022-09-27T08:33:02.629Z,99167.06
2022-09-27T08:35:31.251Z,99167.47
2022-09-27T08:38:00.675Z,99163.72
2022-09-27T08:40:56.591Z,99173.31
2022-09-27T08:43:23.243Z,99161.63
2022-09-27T08:46:15.046Z,99178.50
2022-09-27T08:48:45.062Z,99170.81
2022-09-27T08:51:13.992Z,99166.41
2022-09-27T08:53:55.742Z,99178.28
2022-09-27T08:56:24.276Z,99173.28
2022-09-27T08:58:59.084Z,99167.84
2022-09-27T09:01:29.137Z,99172.66
2022-09-27T09:04:01.777Z,99177.03
2022-09-27T09:07:21.098Z,99169.75
2022-09-27T09:10:58.719Z,99165.78
2022-09-27T09:14:21.520Z,99163.50
2022-09-27T09:17:25.057Z,99165.59
2022-09-27T09:20:20.749Z,99165.34
2022-09-27T09:23:00.684Z,99173.31
2022-09-27T09:26:16.964Z,99176.63
2022-09-27T09:29:08.889Z,99194.13
2022-09-27T09:31:58.206Z,99192.06
2022-09-27T09:34:44.783Z,99197.06
2022-09-27T09:37:36.808Z,99198.34
2022-09-27T09:40:18.290Z,99199.13
2022-09-27T09:43:08.307Z,99208.03
2022-09-27T09:45:44.529Z,99195.09
2022-09-27T09:48:32.026Z,99198.22
2022-09-27T09:51:02.955Z,99195.47
2022-09-27T09:54:09.135Z,99193.16
2022-09-27T09:56:45.940Z,99191.66
2022-09-27T09:59:28.905Z,99191.91
2022-09-27T10:02:14.185Z,99199.34
2022-09-27T10:04:41.072Z,99193.78
2022-09-27T10:07:09.469Z,99198.38
2022-09-27T10:09:36.674Z,99199.81
2022-09-27T10:12:04.437Z,99197.31
2022-09-27T10:14:32.906Z,99193.16
2022-09-27T10:17:04.321Z,99193.19
2022-09-27T10:19:34.923Z,99189.44
2022-09-27T10:22:12.012Z,99185.50
2022-09-27T10:25:05.810Z,99191.31
2022-09-27T10:27:43.492Z,99178.84
2022-09-27T10:30:32.528Z,99183.00
2022-09-27T10:33:19.236Z,99179.50
2022-09-27T10:35:51.155Z,99182.00
2022-09-27T10:38:32.896Z,99174.50
2022-09-27T10:41:25.817Z,99163.69
2022-09-27T10:43:52.712Z,99162.88
2022-09-27T10:46:28.462Z,99156.66
2022-09-27T10:49:26.314Z,99159.56
2022-09-27T10:51:59.864Z,99160.78
2022-09-27T10:54:30.600Z,99154.50
2022-09-27T10:57:05.208Z,99157.81
2022-09-27T10:59:37.028Z,99157.16
2022-09-27T11:02:05.330Z,99151.50
2022-09-27T11:04:37.169Z,99143.56
2022-09-27T11:07:20.237Z,99145.59
2022-09-27T11:10:05.682Z,99142.25
2022-09-27T11:12:32.404Z,99131.38
2022-09-27T11:15:07.685Z,99141.19
2022-09-27T11:17:54.848Z,99128.91
2022-09-27T11:20:48.360Z,99112.63
2022-09-27T11:23:34.604Z,99120.97
2022-09-27T11:26:45.185Z,99121.78
2022-09-27T11:29:35.419Z,99123.47
2022-09-27T11:32:24.323Z,99118.44
2022-09-27T11:35:11.064Z,99115.09
2022-09-27T11:38:05.038Z,99110.72
2022-09-27T11:41:00.845Z,99104.63
2022-09-27T11:44:09.897Z,99105.66
2022-09-27T11:46:42.170Z,99119.16
2022-09-27T11:49:36.475Z,99108.19
2022-09-27T11:52:23.389Z,99111.03
2022-09-27T11:55:24.100Z,99113.00
2022-09-27T11:58:27.721Z,99111.19
2022-09-27T12:01:17.736Z,99121.38
2022-09-27T12:04:29.050Z,99122.38
2022-09-27T12:07:17.082Z,99111.25
2022-09-27T12:09:50.493Z,99108.38
2022-09-27T12:12:39.791Z,99102.56
2022-09-27T12:15:17.260Z,99092.94
2022-09-27T12:17:49.511Z,99091.16
2022-09-27T12:20:25.261Z,99091.91
2022-09-27T12:22:59.058Z,99090.91
2022-09-27T12:25:32.070Z,99081.81
2022-09-27T12:28:39.520Z,99089.75
2022-09-27T12:31:28.977Z,99094.59
2022-09-27T12:34:34.365Z,99087.34
2022-09-27T12:37:33.333Z,99091.09
2022-09-27T12:40:18.957Z,99088.09
2022-09-27T12:43:11.529Z,99085.28
2022-09-27T12:46:03.132Z,99094.31
2022-09-27T12:49:22.508Z,99086.66
2022-09-27T12:52:09.685Z,99078.97
2022-09-27T12:55:11.814Z,99087.13
2022-09-27T12:58:07.778Z,99085.03
2022-09-27T13:00:40.901Z,99082.75
2022-09-27T13:03:44.443Z,99088.59
2022-09-27T13:06:39.215Z,99088.16
2022-09-27T13:09:37.740Z,99079.31
2022-09-27T13:12:22.334Z,99082.44
2022-09-27T13:15:17.642Z,99090.44
2022-09-27T13:17:44.957Z,99082.94
2022-09-27T13:20:42.642Z,99101.38
2022-09-27T13:23:18.445Z,99092.44
2022-09-27T13:26:09.913Z,99090.16
2022-09-27T13:28:46.040Z,99082.84
2022-09-27T13:31:16.346Z,99098.06
2022-09-27T13:33:55.057Z,99084.69
2022-09-27T13:36:25.016Z,99078.03
2022-09-27T13:39:12.568Z,99068.81
2022-09-27T13:41:45.255Z,99071.69
2022-09-27T13:44:14.081Z,99065.34
2022-09-27T13:47:20.211Z,99057.34
2022-09-27T13:49:51.569Z,99068.06
2022-09-27T13:52:33.977Z,99056.72
2022-09-27T13:55:04.599Z,99046.81
2022-09-27T13:57:40.664Z,99048.94
2022-09-27T14:00:33.272Z,99069.97
2022-09-27T14:03:18.380Z,99059.50
2022-09-27T14:05:57.773Z,99046.53
2022-09-27T14:08:36.384Z,99046.94
2022-09-27T14:11:11.525Z,99047.81
2022-09-27T14:13:38.810Z,99049.97
2022-09-27T14:16:07.377Z,99044.94
2022-09-27T14:18:37.693Z,99043.22
2022-09-27T14:21:34.578Z,99045.75
2022-09-27T14:24:30.703Z,99043.59
2022-09-27T14:27:28.127Z,99037.66
2022-09-27T14:30:06.378Z,99039.97
2022-09-27T14:32:35.154Z,99039.34
2022-09-27T14:35:34.081Z,99036.75
2022-09-27T14:38:35.859Z,99037.34
2022-09-27T14:41:04.251Z,99027.56
2022-09-27T14:43:34.271Z,99023.78
2022-09-27T14:46:06.924Z,99037.97
2022-09-27T14:48:40.290Z,99027.84
2022-09-27T14:51:14.602Z,99030.09
2022-09-27T14:54:00.759Z,99034.41
2022-09-27T14:56:40.007Z,99035.31
2022-09-27T14:59:27.260Z,99030.88
2022-09-27T15:01:54.652Z,99031.91
2022-09-27T15:04:23.641Z,99027.19
2022-09-27T15:06:51.477Z,99021.19
2022-09-27T15:09:19.644Z,99025.13
2022-09-27T15:11:54.946Z,99021.44
2022-09-27T15:14:23.581Z,99030.78
2022-09-27T15:16:54.158Z,99024.59
2022-09-27T15:19:28.141Z,99027.63
2022-09-27T15:21:57.520Z,99018.19
2022-09-27T15:25:08.407Z,99015.97
2022-09-27T15:27:35.380Z,99018.91
2022-09-27T15:30:02.328Z,99015.41
2022-09-27T15:32:29.669Z,99012.16
2022-09-27T15:34:58.012Z,99012.53
2022-09-27T15:37:35.548Z,99010.41
2022-09-27T15:40:21.305Z,99028.41
2022-09-27T15:43:02.453Z,99016.75
2022-09-27T15:45:36.617Z,99015.13
2022-09-27T15:48:15.758Z,99004.28
2022-09-27T15:50:43.689Z,99012.59
2022-09-27T15:53:11.388Z,99016.28
2022-09-27T15:55:45.269Z,99005.03
2022-09-27T15:58:19.696Z,99014.53
2022-09-27T16:01:07.950Z,99011.97
2022-09-27T16:03:35.707Z,99002.59
2022-09-27T16:06:04.298Z,99009.91
2022-09-27T16:08:31.230Z,99014.28
2022-09-27T16:10:59.646Z,99012.78
2022-09-27T16:13:32.760Z,99006.75
2022-09-27T16:16:01.892Z,99013.16
2022-09-27T16:18:30.886Z,99005.16
2022-09-27T16:20:59.439Z,99008.22
2022-09-27T16:23:26.651Z,99007.94
2022-09-27T16:25:53.766Z,99008.47
2022-09-27T16:28:21.061Z,99005.75
2022-09-27T16:30:48.540Z,98998.97
2022-09-27T16:33:15.526Z,98988.19
2022-09-27T16:35:42.372Z,98991.91
2022-09-27T16:38:10.046Z,99003.50
2022-09-27T16:40:38.161Z,98999.19
2022-09-27T16:43:07.583Z,98996.09
2022-09-27T16:45:36.674Z,98995.47
2022-09-27T16:48:03.900Z,98998.19
2022-09-27T16:50:49.389Z,99001.78
2022-09-27T16:53:16.178Z,99004.25
2022-09-27T16:55:43.113Z,99002.31
2022-09-27T16:58:09.993Z,99003.94
2022-09-27T17:00:37.085Z,99007.06
2022-09-27T17:03:04.418Z,99007.31
2022-09-27T17:05:31.931Z,98996.28
2022-09-27T17:07:59.097Z,99003.84
2022-09-27T17:10:25.929Z,99005.41
2022-09-27T17:12:52.721Z,99002.50
2022-09-27T17:15:20.044Z,99006.09
2022-09-27T17:17:50.884Z,99004.72
2022-09-27T17:20:18.299Z,99002.91
2022-09-27T17:22:45.140Z,99007.97
2022-09-27T17:25:12.125Z,99006.72
2022-09-27T17:27:38.965Z,99011.00
2022-09-27T17:30:07.065Z,99013.97
2022-09-27T17:32:35.049Z,99006.03
2022-09-27T17:35:02.856Z,99006.97
2022-09-27T17:37:30.307Z,99005.53
2022-09-27T17:39:57.729Z,99003.69
2022-09-27T17:42:25.558Z,99014.13
2022-09-27T17:44:52.459Z,99013.91
2022-09-27T17:47:37.616Z,99018.06
2022-09-27T17:50:24.971Z,99013.50
2022-09-27T17:52:53.540Z,99004.97
2022-09-27T17:55:23.977Z,99012.69
2022-09-27T17:57:51.367Z,99017.47
2022-09-27T18:00:20.473Z,99017.47
2022-09-27T18:02:47.595Z,99022.88
2022-09-27T18:05:15.004Z,99018.72
2022-09-27T18:07:41.825Z,99021.03
2022-09-27T18:10:08.606Z,99020.81
2022-09-27T18:12:35.498Z,99022.06
2022-09-27T18:15:03.829Z,99013.09
2022-09-27T18:17:31.109Z,99021.41
2022-09-27T18:20:00.159Z,99017.88
2022-09-27T18:22:31.330Z,99021.84
2022-09-27T18:24:58.577Z,99030.97
2022-09-27T18:27:25.352Z,99026.00
2022-09-27T18:29:52.716Z,99019.94
2022-09-27T18:32:19.763Z,99022.44
2022-09-27T18:34:46.550Z,99018.47
2022-09-27T18:37:13.409Z,99014.50
2022-09-27T18:39:41.057Z,99025.31
2022-09-27T18:42:09.222Z,99012.81
2022-09-27T18:44:36.081Z,99026.56
2022-09-27T18:47:03.019Z,99021.53
2022-09-27T18:49:33.834Z,99026.72
2022-09-27T18:52:01.433Z,99026.09
2022-09-27T18:54:28.318Z,99033.53
2022-09-27T18:56:55.158Z,99030.00
2022-09-27T18:59:23.681Z,99037.69
2022-09-27T19:01:50.858Z,99036.25
2022-09-27T19:04:25.066Z,99042.25
2022-09-27T19:06:54.551Z,99036.00
2022-09-27T19:09:21.564Z,99049.13
2022-09-27T19:11:48.657Z,99043.09
2022-09-27T19:14:18.992Z,99043.09
2022-09-27T19:16:47.633Z,99040.81
2022-09-27T19:19:18.923Z,99039.56
2022-09-27T19:21:46.707Z,99039.31
2022-09-27T19:24:14.385Z,99045.97
2022-09-27T19:26:41.582Z,99050.94
2022-09-27T19:29:08.455Z,99053.03
2022-09-27T19:31:36.142Z,99049.66
2022-09-27T19:34:03.910Z,99046.75
2022-09-27T19:36:31.145Z,99051.53
2022-09-27T19:38:59.114Z,99062.09
2022-09-27T19:41:26.789Z,99059.81
2022-09-27T19:43:55.160Z,99073.31
2022-09-27T19:46:23.794Z,99070.19
2022-09-27T19:48:52.854Z,99071.22
2022-09-27T19:51:27.147Z,99072.50
2022-09-27T19:53:54.847Z,99084.75
2022-09-27T19:56:22.935Z,99096.88
2022-09-27T19:58:50.820Z,99079.66
2022-09-27T20:01:24.549Z,99078.41
2022-09-27T20:03:55.939Z,99090.47
2022-09-27T20:06:22.879Z,99085.94
2022-09-27T20:08:50.984Z,99090.97
2022-09-27T20:11:23.953Z,99083.69
2022-09-27T20:13:53.266Z,99085.13
2022-09-27T20:16:26.158Z,99082.03
2022-09-27T20:18:58.685Z,99082.28
2022-09-27T20:21:32.794Z,99088.47
2022-09-27T20:24:02.113Z,99081.78
2022-09-27T20:26:31.088Z,99089.47
2022-09-27T20:29:00.617Z,99088.25
2022-09-27T20:31:34.446Z,99078.03
2022-09-27T20:34:01.679Z,99080.09
2022-09-27T20:36:36.625Z,99077.16
2022-09-27T20:39:09.930Z,99076.09
2022-09-27T20:41:46.133Z,99074.19
2022-09-27T20:44:19.520Z,99071.88
2022-09-27T20:46:47.776Z,99062.09
2022-09-27T20:49:17.805Z,99062.88
2022-09-27T20:51:51.349Z,99074.09
2022-09-27T20:54:18.845Z,99070.34
2022-09-27T20:56:48.337Z,99069.66
2022-09-27T20:59:21.422Z,99057.38
2022-09-27T21:01:52.006Z,99054.22
2022-09-27T21:04:20.326Z,99062.69
2022-09-27T21:06:47.270Z,99064.13
2022-09-27T21:09:24.037Z,99071.41
2022-09-27T21:11:52.208Z,99075.31
2022-09-27T21:14:19.121Z,99077.56
2022-09-27T21:16:46.402Z,99071.97
2022-09-27T21:19:13.541Z,99071.97
2022-09-27T21:21:40.492Z,99080.91
2022-09-27T21:24:07.575Z,99073.44
2022-09-27T21:26:35.205Z,99070.09
2022-09-27T21:29:08.558Z,99084.91
2022-09-27T21:31:36.018Z,99079.28
2022-09-27T21:34:06.383Z,99082.22
2022-09-27T21:36:37.413Z,99077.63
2022-09-27T21:39:07.060Z,99078.91
2022-09-27T21:41:34.081Z,99077.13
2022-09-27T21:44:05.404Z,99071.25
2022-09-27T21:46:32.586Z,99075.69
2022-09-27T21:49:04.145Z,99072.97
2022-09-27T21:51:36.948Z,99084.03
2022-09-27T21:54:07.656Z,99091.09
2022-09-27T21:56:37.798Z,99080.91
2022-09-27T21:59:06.841Z,99092.41
2022-09-27T22:01:35.120Z,99083.47
2022-09-27T22:04:04.825Z,99077.66
2022-09-27T22:06:37.434Z,99068.09
2022-09-27T22:09:08.439Z,99081.59
2022-09-27T22:11:39.740Z,99080.72
2022-09-27T22:14:07.032Z,99084.84
2022-09-27T22:16:34.121Z,99082.09
2022-09-27T22:19:01.566Z,99080.16
2022-09-27T22:21:32.738Z,99078.06
2022-09-27T22:24:07.727Z,99081.75
2022-09-27T22:26:37.764Z,99083.38
2022-09-27T22:29:05.810Z,99082.47
2022-09-27T22:31:33.509Z,99082.41
2022-09-27T22:34:06.654Z,99084.88
2022-09-27T22:36:34.381Z,99091.66
2022-09-27T22:39:01.573Z,99091.00
2022-09-27T22:41:30.696Z,99086.84
2022-09-27T22:43:58.128Z,99088.44
2022-09-27T22:46:25.432Z,99091.31
2022-09-27T22:48:52.836Z,99094.22
2022-09-27T22:51:19.614Z,99081.94
2022-09-27T22:53:46.626Z,99079.25
2022-09-27T22:56:20.548Z,99088.09
2022-09-27T22:58:48.912Z,99089.78
2022-09-27T23:01:23.027Z,99095.72
2022-09-27T23:03:52.275Z,99084.94
2022-09-27T23:06:21.045Z,99093.44
2022-09-27T23:08:49.018Z,99083.41
2022-09-27T23:11:20.698Z,99093.16
2022-09-27T23:13:49.411Z,99090.66
2022-09-27T23:16:20.845Z,99089.84
2022-09-27T23:18:48.058Z,99092.34
2022-09-27T23:21:16.373Z,99092.72
2022-09-27T23:23:45.873Z,99095.59
2022-09-27T23:26:16.330Z,99099.16
2022-09-27T23:28:43.700Z,99093.50
2022-09-27T23:31:18.838Z,99089.97
2022-09-27T23:33:48.785Z,99093.31
2022-09-27T23:36:19.243Z,99089.97
2022-09-27T23:38:48.652Z,99092.66
2022-09-27T23:41:17.383Z,99084.75
2022-09-27T23:43:45.304Z,99088.88
2022-09-27T23:46:13.380Z,99091.16
2022-09-27T23:48:40.906Z,99088.88
2022-09-27T23:51:11.768Z,99080.31
2022-09-27T23:53:40.243Z,99086.28
2022-09-27T23:56:13.787Z,99084.63
2022-09-27T23:58:43.510Z,99084.81
